sensor_id;sensor_type;location;lat;lon;timestamp;pressure;altitude;pressure_sealevel;temperature;humidity
46464;BME280;32161;48.148;-1.554;2023-05-25T00:01:43;101724.63;;;14.47;72.91
46464;BME280;32161;48.148;-1.554;2023-05-25T00:04:14;101718.78;;;14.43;73.09
46464;BME280;32161;48.148;-1.554;2023-05-25T00:06:43;101727.69;;;14.38;73.36
46464;BME280;32161;48.148;-1.554;2023-05-25T00:09:12;101728.13;;;14.35;73.31
46464;BME280;32161;48.148;-1.554;2023-05-25T00:11:40;101739.53;;;14.32;73.68
46464;BME280;32161;48.148;-1.554;2023-05-25T00:14:07;101734.53;;;14.29;73.63
46464;BME280;32161;48.148;-1.554;2023-05-25T00:16:35;101733.94;;;14.27;73.54
46464;BME280;32161;48.148;-1.554;2023-05-25T00:19:05;101739.28;;;14.22;74.01
46464;BME280;32161;48.148;-1.554;2023-05-25T00:21:35;101737.44;;;14.16;73.99
46464;BME280;32161;48.148;-1.554;2023-05-25T00:24:06;101735.16;;;14.13;74.43
46464;BME280;32161;48.148;-1.554;2023-05-25T00:26:34;101738.34;;;14.10;74.47
46464;BME280;32161;48.148;-1.554;2023-05-25T00:29:02;101734.56;;;14.11;74.26
46464;BME280;32161;48.148;-1.554;2023-05-25T00:31:30;101741.09;;;14.10;74.42
46464;BME280;32161;48.148;-1.554;2023-05-25T00:33:58;101738.34;;;14.10;74.22
46464;BME280;32161;48.148;-1.554;2023-05-25T00:36:26;101744.31;;;14.07;74.41
46464;BME280;32161;48.148;-1.554;2023-05-25T00:38:53;101742.59;;;14.06;74.05
46464;BME280;32161;48.148;-1.554;2023-05-25T00:41:23;101743.69;;;14.05;74.46
46464;BME280;32161;48.148;-1.554;2023-05-25T00:43:52;101744.13;;;14.02;74.52
46464;BME280;32161;48.148;-1.554;2023-05-25T00:46:20;101740.56;;;14.01;74.31
46464;BME280;32161;48.148;-1.554;2023-05-25T00:48:50;101740.56;;;14.01;74.51
46464;BME280;32161;48.148;-1.554;2023-05-25T00:51:20;101736.63;;;13.97;74.75
46464;BME280;32161;48.148;-1.554;2023-05-25T00:53:48;101745.06;;;13.96;74.63
46464;BME280;32161;48.148;-1.554;2023-05-25T00:56:20;101734.66;;;13.86;74.91
46464;BME280;32161;48.148;-1.554;2023-05-25T00:58:54;101733.06;;;13.78;75.21
46464;BME280;32161;48.148;-1.554;2023-05-25T01:01:23;101720.91;;;13.74;75.61
46464;BME280;32161;48.148;-1.554;2023-05-25T01:03:53;101734.56;;;13.74;75.66
46464;BME280;32161;48.148;-1.554;2023-05-25T01:06:22;101728.13;;;13.68;75.79
46464;BME280;32161;48.148;-1.554;2023-05-25T01:08:56;101720.13;;;13.67;75.72
46464;BME280;32161;48.148;-1.554;2023-05-25T01:11:32;101725.00;;;13.65;75.80
46464;BME280;32161;48.148;-1.554;2023-05-25T01:14:01;101725.22;;;13.63;75.85
46464;BME280;32161;48.148;-1.554;2023-05-25T01:16:29;101723.56;;;13.62;76.07
46464;BME280;32161;48.148;-1.554;2023-05-25T01:18:58;101722.09;;;13.60;75.70
46464;BME280;32161;48.148;-1.554;2023-05-25T01:21:31;101732.88;;;13.55;76.12
46464;BME280;32161;48.148;-1.554;2023-05-25T01:24:08;101726.78;;;13.53;76.12
46464;BME280;32161;48.148;-1.554;2023-05-25T01:26:45;101724.53;;;13.50;76.76
46464;BME280;32161;48.148;-1.554;2023-05-25T01:29:14;101730.44;;;13.47;76.74
46464;BME280;32161;48.148;-1.554;2023-05-25T01:31:44;101729.63;;;13.46;77.01
46464;BME280;32161;48.148;-1.554;2023-05-25T01:34:14;101732.34;;;13.46;76.71
46464;BME280;32161;48.148;-1.554;2023-05-25T01:36:43;101738.25;;;13.43;77.33
46464;BME280;32161;48.148;-1.554;2023-05-25T01:39:11;101731.97;;;13.42;77.30
46464;BME280;32161;48.148;-1.554;2023-05-25T01:41:39;101730.75;;;13.38;77.41
46464;BME280;32161;48.148;-1.554;2023-05-25T01:44:07;101732.84;;;13.36;77.98
46464;BME280;32161;48.148;-1.554;2023-05-25T01:46:37;101732.25;;;13.34;77.85
46464;BME280;32161;48.148;-1.554;2023-05-25T01:49:15;101729.72;;;13.33;77.59
46464;BME280;32161;48.148;-1.554;2023-05-25T01:51:57;101729.72;;;13.33;77.79
46464;BME280;32161;48.148;-1.554;2023-05-25T01:54:35;101725.34;;;13.32;77.75
46464;BME280;32161;48.148;-1.554;2023-05-25T01:57:09;101723.66;;;13.31;77.72
46464;BME280;32161;48.148;-1.554;2023-05-25T01:59:43;101718.41;;;13.29;77.54
46464;BME280;32161;48.148;-1.554;2023-05-25T02:02:14;101719.44;;;13.35;77.65
46464;BME280;32161;48.148;-1.554;2023-05-25T02:04:42;101719.09;;;13.25;78.29
46464;BME280;32161;48.148;-1.554;2023-05-25T02:07:11;101715.94;;;13.21;78.37
46464;BME280;32161;48.148;-1.554;2023-05-25T02:09:38;101721.63;;;13.19;78.71
46464;BME280;32161;48.148;-1.554;2023-05-25T02:12:07;101723.31;;;13.20;78.79
46464;BME280;32161;48.148;-1.554;2023-05-25T02:14:35;101726.88;;;13.21;78.91
46464;BME280;32161;48.148;-1.554;2023-05-25T02:17:02;101719.13;;;13.18;78.65
46464;BME280;32161;48.148;-1.554;2023-05-25T02:19:30;101718.06;;;13.19;78.99
46464;BME280;32161;48.148;-1.554;2023-05-25T02:21:57;101722.91;;;13.17;79.36
46464;BME280;32161;48.148;-1.554;2023-05-25T02:24:26;101735.50;;;13.18;79.57
46464;BME280;32161;48.148;-1.554;2023-05-25T02:26:54;101724.56;;;13.18;79.31
46464;BME280;32161;48.148;-1.554;2023-05-25T02:29:22;101725.44;;;13.18;79.79
46464;BME280;32161;48.148;-1.554;2023-05-25T02:31:49;101727.78;;;13.15;79.72
46464;BME280;32161;48.148;-1.554;2023-05-25T02:34:17;101736.78;;;13.15;79.88
46464;BME280;32161;48.148;-1.554;2023-05-25T02:36:44;101729.44;;;13.16;80.20
46464;BME280;32161;48.148;-1.554;2023-05-25T02:39:12;101734.28;;;13.14;80.38
46464;BME280;32161;48.148;-1.554;2023-05-25T02:41:41;101733.44;;;13.13;80.14
46464;BME280;32161;48.148;-1.554;2023-05-25T02:44:08;101731.94;;;13.17;80.08
46464;BME280;32161;48.148;-1.554;2023-05-25T02:46:36;101730.91;;;13.18;80.20
46464;BME280;32161;48.148;-1.554;2023-05-25T02:49:04;101740.13;;;13.17;80.26
46464;BME280;32161;48.148;-1.554;2023-05-25T02:51:32;101737.41;;;13.17;80.05
46464;BME280;32161;48.148;-1.554;2023-05-25T02:53:59;101732.56;;;13.19;80.00
46464;BME280;32161;48.148;-1.554;2023-05-25T02:56:27;101729.59;;;13.21;79.62
46464;BME280;32161;48.148;-1.554;2023-05-25T02:58:56;101720.81;;;13.19;79.90
46464;BME280;32161;48.148;-1.554;2023-05-25T03:01:24;101723.34;;;13.14;79.89
46464;BME280;32161;48.148;-1.554;2023-05-25T03:03:56;101721.94;;;13.11;79.53
46464;BME280;32161;48.148;-1.554;2023-05-25T03:06:23;101715.25;;;13.07;80.28
46464;BME280;32161;48.148;-1.554;2023-05-25T03:08:51;101723.63;;;13.06;80.37
46464;BME280;32161;48.148;-1.554;2023-05-25T03:11:18;101717.13;;;13.07;80.06
46464;BME280;32161;48.148;-1.554;2023-05-25T03:13:46;101721.53;;;13.08;80.24
46464;BME280;32161;48.148;-1.554;2023-05-25T03:16:15;101717.72;;;13.09;79.56
46464;BME280;32161;48.148;-1.554;2023-05-25T03:18:42;101708.47;;;13.10;79.73
46464;BME280;32161;48.148;-1.554;2023-05-25T03:21:10;101714.56;;;13.12;79.17
46464;BME280;32161;48.148;-1.554;2023-05-25T03:23:38;101706.81;;;13.09;79.60
46464;BME280;32161;48.148;-1.554;2023-05-25T03:26:05;101707.66;;;13.09;78.87
46464;BME280;32161;48.148;-1.554;2023-05-25T03:28:33;101712.03;;;13.10;78.41
46464;BME280;32161;48.148;-1.554;2023-05-25T03:31:00;101715.00;;;13.09;78.88
46464;BME280;32161;48.148;-1.554;2023-05-25T03:33:30;101714.19;;;13.08;78.50
46464;BME280;32161;48.148;-1.554;2023-05-25T03:35:58;101715.84;;;13.09;78.44
46464;BME280;32161;48.148;-1.554;2023-05-25T03:38:26;101716.06;;;13.08;77.90
46464;BME280;32161;48.148;-1.554;2023-05-25T03:40:54;101713.53;;;13.06;79.10
46464;BME280;32161;48.148;-1.554;2023-05-25T03:43:21;101710.13;;;12.92;79.91
46464;BME280;32161;48.148;-1.554;2023-05-25T03:45:49;101716.47;;;12.80;80.75
46464;BME280;32161;48.148;-1.554;2023-05-25T03:48:16;101713.44;;;12.69;81.03
46464;BME280;32161;48.148;-1.554;2023-05-25T03:50:45;101713.06;;;12.59;81.80
46464;BME280;32161;48.148;-1.554;2023-05-25T03:53:13;101721.91;;;12.55;82.57
46464;BME280;32161;48.148;-1.554;2023-05-25T03:55:40;101715.22;;;12.51;82.95
46464;BME280;32161;48.148;-1.554;2023-05-25T03:58:08;101711.44;;;12.52;82.37
46464;BME280;32161;48.148;-1.554;2023-05-25T04:00:36;101715.81;;;12.53;82.85
46464;BME280;32161;48.148;-1.554;2023-05-25T04:03:03;101718.56;;;12.53;82.67
46464;BME280;32161;48.148;-1.554;2023-05-25T04:05:31;101716.22;;;12.56;82.88
46464;BME280;32161;48.148;-1.554;2023-05-25T04:08:00;101710.38;;;12.53;83.49
46464;BME280;32161;48.148;-1.554;2023-05-25T04:10:28;101719.63;;;12.52;82.98
46464;BME280;32161;48.148;-1.554;2023-05-25T04:12:55;101718.56;;;12.53;83.30
46464;BME280;32161;48.148;-1.554;2023-05-25T04:15:24;101718.78;;;12.51;83.29
46464;BME280;32161;48.148;-1.554;2023-05-25T04:17:52;101717.53;;;12.54;83.46
46464;BME280;32161;48.148;-1.554;2023-05-25T04:20:20;101721.94;;;12.48;83.35
46464;BME280;32161;48.148;-1.554;2023-05-25T04:22:48;101718.22;;;12.42;83.74
46464;BME280;32161;48.148;-1.554;2023-05-25T04:25:18;101715.69;;;12.41;84.19
46464;BME280;32161;48.148;-1.554;2023-05-25T04:27:45;101724.28;;;12.44;84.42
46464;BME280;32161;48.148;-1.554;2023-05-25T04:30:14;101720.31;;;12.40;84.95
46464;BME280;32161;48.148;-1.554;2023-05-25T04:32:41;101718.66;;;12.39;85.11
46464;BME280;32161;48.148;-1.554;2023-05-25T04:35:10;101730.78;;;12.43;85.48
46464;BME280;32161;48.148;-1.554;2023-05-25T04:37:42;101732.91;;;12.41;85.89
46464;BME280;32161;48.148;-1.554;2023-05-25T04:40:10;101732.44;;;12.44;85.54
46464;BME280;32161;48.148;-1.554;2023-05-25T04:42:40;101731.19;;;12.47;85.77
46464;BME280;32161;48.148;-1.554;2023-05-25T04:45:09;101732.03;;;12.48;86.05
46464;BME280;32161;48.148;-1.554;2023-05-25T04:47:37;101734.09;;;12.52;85.77
46464;BME280;32161;48.148;-1.554;2023-05-25T04:50:08;101739.09;;;12.55;85.69
46464;BME280;32161;48.148;-1.554;2023-05-25T04:52:35;101730.69;;;12.57;85.42
46464;BME280;32161;48.148;-1.554;2023-05-25T04:55:04;101729.44;;;12.59;86.04
46464;BME280;32161;48.148;-1.554;2023-05-25T04:57:32;101743.69;;;12.61;85.86
46464;BME280;32161;48.148;-1.554;2023-05-25T05:00:01;101739.06;;;12.62;85.71
46464;BME280;32161;48.148;-1.554;2023-05-25T05:02:28;101743.25;;;12.64;85.32
46464;BME280;32161;48.148;-1.554;2023-05-25T05:04:56;101749.56;;;12.65;85.22
46464;BME280;32161;48.148;-1.554;2023-05-25T05:07:24;101757.06;;;12.69;85.21
46464;BME280;32161;48.148;-1.554;2023-05-25T05:09:51;101752.03;;;12.73;85.10
46464;BME280;32161;48.148;-1.554;2023-05-25T05:12:19;101751.78;;;12.75;85.20
46464;BME280;32161;48.148;-1.554;2023-05-25T05:14:46;101757.03;;;12.76;85.66
46464;BME280;32161;48.148;-1.554;2023-05-25T05:17:15;101755.53;;;12.80;85.63
46464;BME280;32161;48.148;-1.554;2023-05-25T05:19:43;101759.53;;;12.78;86.09
46464;BME280;32161;48.148;-1.554;2023-05-25T05:22:11;101762.66;;;12.81;86.16
46464;BME280;32161;48.148;-1.554;2023-05-25T05:24:41;101757.59;;;12.85;86.00
46464;BME280;32161;48.148;-1.554;2023-05-25T05:27:08;101764.50;;;12.87;86.29
46464;BME280;32161;48.148;-1.554;2023-05-25T05:29:37;101766.19;;;12.88;86.72
46464;BME280;32161;48.148;-1.554;2023-05-25T05:32:05;101769.91;;;12.94;86.81
46464;BME280;32161;48.148;-1.554;2023-05-25T05:34:34;101762.56;;;12.94;86.65
46464;BME280;32161;48.148;-1.554;2023-05-25T05:37:02;101770.47;;;13.03;86.79
46464;BME280;32161;48.148;-1.554;2023-05-25T05:39:30;101774.00;;;13.10;86.67
46464;BME280;32161;48.148;-1.554;2023-05-25T05:41:58;101772.97;;;13.11;87.03
46464;BME280;32161;48.148;-1.554;2023-05-25T05:44:26;101767.84;;;13.14;86.84
46464;BME280;32161;48.148;-1.554;2023-05-25T05:46:54;101772.22;;;13.22;87.12
46464;BME280;32161;48.148;-1.554;2023-05-25T05:49:25;101774.03;;;13.35;86.73
46464;BME280;32161;48.148;-1.554;2023-05-25T05:51:54;101771.63;;;13.45;86.86
46464;BME280;32161;48.148;-1.554;2023-05-25T05:54:22;101775.75;;;13.54;86.79
46464;BME280;32161;48.148;-1.554;2023-05-25T05:56:50;101774.34;;;13.70;86.39
46464;BME280;32161;48.148;-1.554;2023-05-25T05:59:19;101764.38;;;13.76;86.11
46464;BME280;32161;48.148;-1.554;2023-05-25T06:01:47;101770.31;;;13.91;86.03
46464;BME280;32161;48.148;-1.554;2023-05-25T06:04:15;101780.75;;;14.01;84.96
46464;BME280;32161;48.148;-1.554;2023-05-25T06:06:42;101778.53;;;14.09;84.86
46464;BME280;32161;48.148;-1.554;2023-05-25T06:09:11;101781.72;;;14.25;84.46
46464;BME280;32161;48.148;-1.554;2023-05-25T06:11:39;101787.84;;;14.38;84.24
46464;BME280;32161;48.148;-1.554;2023-05-25T06:14:07;101791.94;;;14.48;83.38
46464;BME280;32161;48.148;-1.554;2023-05-25T06:16:34;101789.75;;;14.56;83.38
46464;BME280;32161;48.148;-1.554;2023-05-25T06:19:02;101787.66;;;14.70;83.18
46464;BME280;32161;48.148;-1.554;2023-05-25T06:21:30;101780.19;;;14.77;82.44
46464;BME280;32161;48.148;-1.554;2023-05-25T06:23:57;101787.16;;;14.92;81.47
46464;BME280;32161;48.148;-1.554;2023-05-25T06:26:26;101786.44;;;14.96;80.76
46464;BME280;32161;48.148;-1.554;2023-05-25T06:28:55;101780.88;;;15.03;80.66
46464;BME280;32161;48.148;-1.554;2023-05-25T06:31:22;101782.41;;;14.99;81.95
46464;BME280;32161;48.148;-1.554;2023-05-25T06:33:50;101795.41;;;15.03;81.81
46464;BME280;32161;48.148;-1.554;2023-05-25T06:36:18;101780.16;;;15.07;81.14
46464;BME280;32161;48.148;-1.554;2023-05-25T06:38:45;101778.75;;;15.17;81.68
46464;BME280;32161;48.148;-1.554;2023-05-25T06:41:13;101785.31;;;15.27;81.92
46464;BME280;32161;48.148;-1.554;2023-05-25T06:43:42;101774.97;;;15.41;81.10
46464;BME280;32161;48.148;-1.554;2023-05-25T06:46:10;101777.00;;;15.46;79.59
46464;BME280;32161;48.148;-1.554;2023-05-25T06:48:43;101780.31;;;15.48;79.41
46464;BME280;32161;48.148;-1.554;2023-05-25T06:51:11;101772.47;;;15.63;79.57
46464;BME280;32161;48.148;-1.554;2023-05-25T06:53:38;101775.84;;;15.65;78.97
46464;BME280;32161;48.148;-1.554;2023-05-25T06:56:06;101773.69;;;15.67;78.78
46464;BME280;32161;48.148;-1.554;2023-05-25T06:58:34;101776.44;;;15.67;78.33
46464;BME280;32161;48.148;-1.554;2023-05-25T07:01:03;101782.88;;;15.84;78.40
46464;BME280;32161;48.148;-1.554;2023-05-25T07:03:31;101783.59;;;15.80;77.69
46464;BME280;32161;48.148;-1.554;2023-05-25T07:05:58;101786.19;;;15.86;78.95
46464;BME280;32161;48.148;-1.554;2023-05-25T07:08:26;101781.41;;;15.94;77.55
46464;BME280;32161;48.148;-1.554;2023-05-25T07:10:53;101786.41;;;16.08;76.09
46464;BME280;32161;48.148;-1.554;2023-05-25T07:13:21;101795.34;;;16.16;76.73
46464;BME280;32161;48.148;-1.554;2023-05-25T07:15:49;101779.78;;;16.33;75.67
46464;BME280;32161;48.148;-1.554;2023-05-25T07:18:19;101782.16;;;16.29;75.95
46464;BME280;32161;48.148;-1.554;2023-05-25T07:20:46;101773.91;;;16.41;75.75
46464;BME280;32161;48.148;-1.554;2023-05-25T07:23:14;101779.53;;;16.34;74.99
46464;BME280;32161;48.148;-1.554;2023-05-25T07:25:41;101780.72;;;16.39;74.99
46464;BME280;32161;48.148;-1.554;2023-05-25T07:28:09;101782.72;;;16.43;75.05
46464;BME280;32161;48.148;-1.554;2023-05-25T07:30:36;101787.03;;;16.39;75.01
46464;BME280;32161;48.148;-1.554;2023-05-25T07:33:04;101780.53;;;16.57;74.79
46464;BME280;32161;48.148;-1.554;2023-05-25T07:35:33;101779.78;;;16.73;75.09
46464;BME280;32161;48.148;-1.554;2023-05-25T07:38:03;101780.88;;;16.89;74.96
46464;BME280;32161;48.148;-1.554;2023-05-25T07:40:30;101776.41;;;17.00;74.71
46464;BME280;32161;48.148;-1.554;2023-05-25T07:42:58;101782.19;;;17.15;72.65
46464;BME280;32161;48.148;-1.554;2023-05-25T07:45:26;101781.69;;;17.35;72.83
46464;BME280;32161;48.148;-1.554;2023-05-25T07:47:53;101788.69;;;17.26;71.73
46464;BME280;32161;48.148;-1.554;2023-05-25T07:50:21;101785.84;;;17.38;70.49
46464;BME280;32161;48.148;-1.554;2023-05-25T07:52:50;101784.66;;;17.50;70.68
46464;BME280;32161;48.148;-1.554;2023-05-25T07:55:19;101783.91;;;17.55;70.63
46464;BME280;32161;48.148;-1.554;2023-05-25T07:57:47;101791.50;;;17.48;69.57
46464;BME280;32161;48.148;-1.554;2023-05-25T08:00:15;101785.56;;;17.56;69.91
46464;BME280;32161;48.148;-1.554;2023-05-25T08:02:43;101786.00;;;17.65;71.25
46464;BME280;32161;48.148;-1.554;2023-05-25T08:05:11;101792.81;;;17.79;70.64
46464;BME280;32161;48.148;-1.554;2023-05-25T08:07:39;101788.13;;;17.79;68.88
46464;BME280;32161;48.148;-1.554;2023-05-25T08:10:09;101789.72;;;17.92;67.69
46464;BME280;32161;48.148;-1.554;2023-05-25T08:12:36;101792.09;;;17.84;67.30
46464;BME280;32161;48.148;-1.554;2023-05-25T08:15:05;101793.78;;;17.90;67.74
46464;BME280;32161;48.148;-1.554;2023-05-25T08:17:33;101790.81;;;17.91;68.02
46464;BME280;32161;48.148;-1.554;2023-05-25T08:20:00;101787.53;;;17.94;68.40
46464;BME280;32161;48.148;-1.554;2023-05-25T08:22:31;101789.16;;;18.12;67.25
46464;BME280;32161;48.148;-1.554;2023-05-25T08:24:58;101779.75;;;18.30;69.33
46464;BME280;32161;48.148;-1.554;2023-05-25T08:27:27;101783.78;;;18.22;66.25
46464;BME280;32161;48.148;-1.554;2023-05-25T08:29:55;101785.63;;;18.17;66.09
46464;BME280;32161;48.148;-1.554;2023-05-25T08:32:23;101790.22;;;18.33;65.74
46464;BME280;32161;48.148;-1.554;2023-05-25T08:34:50;101792.25;;;18.38;67.08
46464;BME280;32161;48.148;-1.554;2023-05-25T08:37:18;101789.81;;;18.41;66.06
46464;BME280;32161;48.148;-1.554;2023-05-25T08:39:47;101787.50;;;18.60;65.48
46464;BME280;32161;48.148;-1.554;2023-05-25T08:42:15;101780.16;;;18.66;65.52
46464;BME280;32161;48.148;-1.554;2023-05-25T08:44:44;101790.19;;;18.72;66.59
46464;BME280;32161;48.148;-1.554;2023-05-25T08:47:11;101789.44;;;18.60;65.27
46464;BME280;32161;48.148;-1.554;2023-05-25T08:49:41;101779.25;;;18.60;66.60
46464;BME280;32161;48.148;-1.554;2023-05-25T08:52:14;101783.09;;;18.59;65.58
46464;BME280;32161;48.148;-1.554;2023-05-25T08:54:44;101789.72;;;18.80;62.91
46464;BME280;32161;48.148;-1.554;2023-05-25T08:57:19;101787.97;;;18.74;63.31
46464;BME280;32161;48.148;-1.554;2023-05-25T09:00:04;101802.59;;;18.74;64.11
46464;BME280;32161;48.148;-1.554;2023-05-25T09:02:40;101800.94;;;18.73;64.04
46464;BME280;32161;48.148;-1.554;2023-05-25T09:05:12;101795.94;;;18.70;64.09
46464;BME280;32161;48.148;-1.554;2023-05-25T09:07:42;101799.81;;;18.74;64.61
46464;BME280;32161;48.148;-1.554;2023-05-25T09:10:11;101806.09;;;18.92;65.76
46464;BME280;32161;48.148;-1.554;2023-05-25T09:12:38;101804.66;;;19.16;66.54
46464;BME280;32161;48.148;-1.554;2023-05-25T09:15:10;101806.44;;;19.33;65.37
46464;BME280;32161;48.148;-1.554;2023-05-25T09:17:38;101804.00;;;19.68;63.64
46464;BME280;32161;48.148;-1.554;2023-05-25T09:20:09;101803.81;;;19.80;64.99
46464;BME280;32161;48.148;-1.554;2023-05-25T09:22:39;101812.72;;;19.97;63.10
46464;BME280;32161;48.148;-1.554;2023-05-25T09:25:08;101801.53;;;20.14;59.29
46464;BME280;32161;48.148;-1.554;2023-05-25T09:27:37;101807.88;;;20.25;57.67
46464;BME280;32161;48.148;-1.554;2023-05-25T09:30:07;101795.50;;;20.33;58.50
46464;BME280;32161;48.148;-1.554;2023-05-25T09:32:38;101801.06;;;20.38;57.80
46464;BME280;32161;48.148;-1.554;2023-05-25T09:35:10;101809.81;;;20.24;58.06
46464;BME280;32161;48.148;-1.554;2023-05-25T09:37:38;101814.22;;;20.20;56.56
46464;BME280;32161;48.148;-1.554;2023-05-25T09:40:08;101801.91;;;19.86;56.52
46464;BME280;32161;48.148;-1.554;2023-05-25T09:42:37;101803.91;;;19.95;57.56
46464;BME280;32161;48.148;-1.554;2023-05-25T09:45:06;101810.50;;;19.94;57.32
46464;BME280;32161;48.148;-1.554;2023-05-25T09:47:36;101806.16;;;20.09;58.73
46464;BME280;32161;48.148;-1.554;2023-05-25T09:50:07;101799.38;;;20.37;59.82
46464;BME280;32161;48.148;-1.554;2023-05-25T09:52:35;101795.66;;;20.68;55.48
46464;BME280;32161;48.148;-1.554;2023-05-25T09:55:04;101792.66;;;20.85;55.31
46464;BME280;32161;48.148;-1.554;2023-05-25T09:57:35;101791.00;;;20.94;54.52
46464;BME280;32161;48.148;-1.554;2023-05-25T10:00:03;101782.16;;;20.87;54.83
46464;BME280;32161;48.148;-1.554;2023-05-25T10:02:31;101795.16;;;20.97;53.97
46464;BME280;32161;48.148;-1.554;2023-05-25T10:05:00;101793.50;;;21.01;53.46
46464;BME280;32161;48.148;-1.554;2023-05-25T10:07:28;101800.94;;;20.90;52.65
46464;BME280;32161;48.148;-1.554;2023-05-25T10:09:58;101797.88;;;20.71;52.66
46464;BME280;32161;48.148;-1.554;2023-05-25T10:12:29;101791.78;;;20.69;55.11
46464;BME280;32161;48.148;-1.554;2023-05-25T10:14:59;101787.06;;;20.50;52.71
46464;BME280;32161;48.148;-1.554;2023-05-25T10:17:30;101787.91;;;20.65;52.62
46464;BME280;32161;48.148;-1.554;2023-05-25T10:20:02;101790.69;;;20.60;52.30
46464;BME280;32161;48.148;-1.554;2023-05-25T10:22:34;101792.03;;;20.58;52.63
46464;BME280;32161;48.148;-1.554;2023-05-25T10:25:09;101807.22;;;20.55;53.66
46464;BME280;32161;48.148;-1.554;2023-05-25T10:27:42;101806.69;;;20.53;51.79
46464;BME280;32161;48.148;-1.554;2023-05-25T10:30:13;101788.69;;;20.51;52.61
46464;BME280;32161;48.148;-1.554;2023-05-25T10:32:43;101784.34;;;20.70;54.36
46464;BME280;32161;48.148;-1.554;2023-05-25T10:35:13;101775.25;;;21.05;52.78
46464;BME280;32161;48.148;-1.554;2023-05-25T10:37:41;101794.63;;;21.15;51.58
46464;BME280;32161;48.148;-1.554;2023-05-25T10:40:10;101783.28;;;21.02;53.95
46464;BME280;32161;48.148;-1.554;2023-05-25T10:42:39;101786.03;;;21.02;54.35
46464;BME280;32161;48.148;-1.554;2023-05-25T10:45:09;101786.03;;;21.17;53.01
46464;BME280;32161;48.148;-1.554;2023-05-25T10:47:39;101780.25;;;21.24;53.04
46464;BME280;32161;48.148;-1.554;2023-05-25T10:50:19;101775.84;;;21.33;50.27
46464;BME280;32161;48.148;-1.554;2023-05-25T10:52:57;101773.06;;;21.53;51.19
46464;BME280;32161;48.148;-1.554;2023-05-25T10:55:26;101791.03;;;21.66;50.08
46464;BME280;32161;48.148;-1.554;2023-05-25T10:58:11;101785.78;;;21.64;49.77
46464;BME280;32161;48.148;-1.554;2023-05-25T11:00:39;101794.09;;;21.64;50.39
46464;BME280;32161;48.148;-1.554;2023-05-25T11:03:08;101781.03;;;21.75;49.67
46464;BME280;32161;48.148;-1.554;2023-05-25T11:05:38;101794.91;;;21.55;50.60
46464;BME280;32161;48.148;-1.554;2023-05-25T11:08:07;101786.88;;;21.63;49.71
46464;BME280;32161;48.148;-1.554;2023-05-25T11:10:54;101781.84;;;21.91;48.53
46464;BME280;32161;48.148;-1.554;2023-05-25T11:13:35;101765.25;;;21.91;50.03
46464;BME280;32161;48.148;-1.554;2023-05-25T11:16:20;101772.94;;;22.04;49.36
46464;BME280;32161;48.148;-1.554;2023-05-25T11:18:53;101765.78;;;21.93;48.55
46464;BME280;32161;48.148;-1.554;2023-05-25T11:21:43;101760.25;;;21.88;50.38
46464;BME280;32161;48.148;-1.554;2023-05-25T11:24:13;101761.63;;;21.90;48.30
46464;BME280;32161;48.148;-1.554;2023-05-25T11:27:05;101766.06;;;21.91;49.01
46464;BME280;32161;48.148;-1.554;2023-05-25T11:29:33;101764.97;;;21.87;50.19
46464;BME280;32161;48.148;-1.554;2023-05-25T11:32:03;101752.47;;;22.00;51.16
46464;BME280;32161;48.148;-1.554;2023-05-25T11:34:31;101761.28;;;22.12;51.16
46464;BME280;32161;48.148;-1.554;2023-05-25T11:37:00;101759.63;;;22.22;50.92
46464;BME280;32161;48.148;-1.554;2023-05-25T11:42:01;101756.19;;;22.45;46.96
46464;BME280;32161;48.148;-1.554;2023-05-25T11:44:31;101744.50;;;22.53;48.48
46464;BME280;32161;48.148;-1.554;2023-05-25T11:47:01;101749.22;;;22.53;48.54
46464;BME280;32161;48.148;-1.554;2023-05-25T11:49:30;101743.31;;;22.59;48.52
46464;BME280;32161;48.148;-1.554;2023-05-25T11:52:04;101748.81;;;22.70;47.74
46464;BME280;32161;48.148;-1.554;2023-05-25T11:54:32;101749.41;;;22.61;48.81
46464;BME280;32161;48.148;-1.554;2023-05-25T11:57:01;101759.56;;;22.32;46.73
46464;BME280;32161;48.148;-1.554;2023-05-25T11:59:29;101749.09;;;22.08;47.89
46464;BME280;32161;48.148;-1.554;2023-05-25T12:01:59;101747.44;;;22.12;48.72
46464;BME280;32161;48.148;-1.554;2023-05-25T12:04:27;101747.25;;;22.53;49.76
46464;BME280;32161;48.148;-1.554;2023-05-25T12:07:02;101757.13;;;22.70;48.30
46464;BME280;32161;48.148;-1.554;2023-05-25T12:09:31;101738.34;;;23.01;48.77
46464;BME280;32161;48.148;-1.554;2023-05-25T12:11:59;101743.81;;;22.72;45.90
46464;BME280;32161;48.148;-1.554;2023-05-25T12:14:29;101743.94;;;22.51;45.00
46464;BME280;32161;48.148;-1.554;2023-05-25T12:16:58;101744.13;;;22.65;46.34
46464;BME280;32161;48.148;-1.554;2023-05-25T12:19:25;101736.84;;;22.79;46.14
46464;BME280;32161;48.148;-1.554;2023-05-25T12:21:53;101744.03;;;22.80;47.01
46464;BME280;32161;48.148;-1.554;2023-05-25T12:24:23;101745.53;;;23.02;47.39
46464;BME280;32161;48.148;-1.554;2023-05-25T12:26:52;101743.81;;;23.11;46.10
46464;BME280;32161;48.148;-1.554;2023-05-25T12:29:23;101748.81;;;23.09;45.24
46464;BME280;32161;48.148;-1.554;2023-05-25T12:31:51;101741.44;;;22.99;46.48
46464;BME280;32161;48.148;-1.554;2023-05-25T12:34:19;101736.94;;;23.03;46.64
46464;BME280;32161;48.148;-1.554;2023-05-25T12:36:48;101737.41;;;23.15;46.19
46464;BME280;32161;48.148;-1.554;2023-05-25T12:39:33;101735.63;;;23.30;46.36
46464;BME280;32161;48.148;-1.554;2023-05-25T12:42:04;101740.38;;;23.53;45.84
46464;BME280;32161;48.148;-1.554;2023-05-25T12:44:39;101738.59;;;23.62;45.97
46464;BME280;32161;48.148;-1.554;2023-05-25T12:47:12;101752.19;;;23.64;46.30
46464;BME280;32161;48.148;-1.554;2023-05-25T12:49:41;101734.03;;;23.77;46.99
46464;BME280;32161;48.148;-1.554;2023-05-25T12:52:10;101735.81;;;23.92;48.48
46464;BME280;32161;48.148;-1.554;2023-05-25T12:54:42;101735.34;;;23.84;48.11